Time;durP1;ratioP1;P1;durP2;ratioP2;P2;SDS_P1;SDS_P2;PMS_P1;PMS_P2;Temp;Humidity;BMP_temperature;BMP_pressure;BME280_temperature;BME280_humidity;BME280_pressure;Samples;Min_cycle;Max_cycle;Signal;HPM_P1;HPM_P2
2021/04/09 00:02:08;;;;;;;11.00;7.63;;;;;;;-145.52;100.00;65322.94;5089326;28;20468;-80
2021/04/09 00:04:34;;;;;;;13.97;8.27;;;;;;;-145.52;100.00;65322.94;5092969;28;20454;-80
2021/04/09 00:07:01;;;;;;;12.87;7.47;;;;;;;-145.52;100.00;65322.94;5093467;28;20502;-80
2021/04/09 00:09:28;;;;;;;10.13;7.13;;;;;;;-145.52;100.00;65322.94;5091352;28;20618;-80
2021/04/09 00:11:54;;;;;;;9.13;7.13;;;;;;;-145.52;100.00;65322.94;5092730;28;20971;-80
2021/04/09 00:14:21;;;;;;;9.50;7.43;;;;;;;-145.52;100.00;65322.94;5088094;28;21099;-81
2021/04/09 00:16:47;;;;;;;9.13;7.20;;;;;;;-145.52;100.00;65322.94;5091791;28;20480;-80
2021/04/09 00:19:14;;;;;;;10.30;7.53;;;;;;;-145.52;100.00;65322.94;5075261;28;20439;-80
2021/04/09 00:21:41;;;;;;;11.53;7.17;;;;;;;-145.52;100.00;65322.94;5088022;28;20482;-80
2021/04/09 00:24:08;;;;;;;11.70;7.10;;;;;;;-145.52;100.00;65322.94;5092637;28;20516;-79
2021/04/09 00:26:35;;;;;;;12.13;7.40;;;;;;;-145.52;100.00;65322.94;5089480;28;20472;-80
2021/04/09 00:29:01;;;;;;;9.57;6.93;;;;;;;-145.52;100.00;65322.94;5092576;28;20524;-80
2021/04/09 00:31:27;;;;;;;12.93;7.83;;;;;;;-145.52;100.00;65322.94;5092108;28;20487;-81
2021/04/09 00:33:54;;;;;;;8.30;6.40;;;;;;;-145.52;100.00;65322.94;5085688;28;20448;-80
2021/04/09 00:36:20;;;;;;;9.80;7.10;;;;;;;-145.52;100.00;65322.94;5086655;28;20501;-80
2021/04/09 00:38:46;;;;;;;15.53;7.70;;;;;;;-145.52;100.00;65322.94;5085180;28;20455;-80
2021/04/09 00:41:13;;;;;;;12.00;7.13;;;;;;;-145.52;100.00;65322.94;5087123;28;20475;-80
2021/04/09 00:43:40;;;;;;;9.57;6.73;;;;;;;-145.52;100.00;65322.94;5082834;28;20495;-81
2021/04/09 00:46:06;;;;;;;17.27;8.10;;;;;;;-145.52;100.00;65322.94;5103801;28;20540;-81
2021/04/09 00:48:33;;;;;;;12.50;7.40;;;;;;;-145.52;100.00;65322.94;5104979;28;20459;-81
2021/04/09 00:50:59;;;;;;;10.93;7.47;;;;;;;-145.52;100.00;65322.94;5105768;28;20475;-81
2021/04/09 00:53:27;;;;;;;13.83;7.20;;;;;;;-145.52;100.00;65322.94;5087191;28;20456;-81
2021/04/09 00:55:54;;;;;;;8.23;7.30;;;;;;;-145.52;100.00;65322.94;5086081;28;20472;-81
2021/04/09 00:58:21;;;;;;;14.43;7.30;;;;;;;-145.52;100.00;65322.94;5103164;28;20492;-80
2021/04/09 01:00:48;;;;;;;15.07;6.80;;;;;;;-145.52;100.00;65322.94;5100014;28;20467;-81
2021/04/09 01:03:14;;;;;;;11.57;7.37;;;;;;;-145.52;100.00;65322.94;5106296;28;20479;-80
2021/04/09 01:05:41;;;;;;;11.00;7.80;;;;;;;-145.52;100.00;65322.94;5102434;28;20474;-79
2021/04/09 01:08:08;;;;;;;10.50;7.50;;;;;;;-145.52;100.00;65322.94;5082677;28;20457;-81
2021/04/09 01:10:34;;;;;;;8.70;6.90;;;;;;;-145.52;100.00;65322.94;5085624;28;21238;-81
2021/04/09 01:13:01;;;;;;;10.10;6.30;;;;;;;-145.52;100.00;65322.94;5096892;28;20444;-80
2021/04/09 01:15:27;;;;;;;12.97;7.83;;;;;;;-145.52;100.00;65322.94;5097682;28;20474;-80
2021/04/09 01:17:59;;;;;;;12.77;7.63;;;;;;;-145.52;100.00;65322.94;5103980;28;20443;-80
2021/04/09 01:20:29;;;;;;;12.20;7.93;;;;;;;-145.52;100.00;65322.94;5085276;28;20510;-80
2021/04/09 01:23:20;;;;;;;9.73;8.23;;;;;;;-145.52;100.00;65322.94;5105232;28;20491;-79
2021/04/09 01:26:03;;;;;;;10.70;7.43;;;;;;;-145.52;100.00;65322.94;5104203;28;20489;-80
2021/04/09 01:28:32;;;;;;;10.87;7.50;;;;;;;-145.52;100.00;65322.94;5085622;28;20436;-80
2021/04/09 01:31:20;;;;;;;13.53;8.00;;;;;;;-145.52;100.00;65322.94;5084820;28;20840;-80
2021/04/09 01:33:49;;;;;;;11.90;8.40;;;;;;;-145.52;100.00;65322.94;5085629;28;20446;-79
2021/04/09 01:36:18;;;;;;;12.73;8.07;;;;;;;-145.52;100.00;65322.94;5096161;28;20510;-80
2021/04/09 01:38:46;;;;;;;8.10;7.30;;;;;;;-145.52;100.00;65322.94;5104939;28;20455;-80
2021/04/09 01:41:14;;;;;;;12.07;8.27;;;;;;;-145.52;100.00;65322.94;5094316;28;20475;-80
2021/04/09 01:43:42;;;;;;;11.10;8.50;;;;;;;-145.52;100.00;65322.94;5094936;28;20487;-80
2021/04/09 01:46:10;;;;;;;10.37;8.57;;;;;;;-145.52;100.00;65322.94;5085521;28;20488;-79
2021/04/09 01:48:40;;;;;;;10.63;8.07;;;;;;;-145.52;100.00;65322.94;5100055;28;20454;-80
2021/04/09 01:51:08;;;;;;;13.50;7.60;;;;;;;-145.52;100.00;65322.94;5098731;28;20489;-79
2021/04/09 01:53:35;;;;;;;10.43;8.17;;;;;;;-145.52;100.00;65322.94;5104500;28;20459;-80
2021/04/09 01:56:01;;;;;;;10.43;7.43;;;;;;;-145.52;100.00;65322.94;5097408;28;20486;-80
2021/04/09 01:58:29;;;;;;;11.93;8.00;;;;;;;-145.52;100.00;65322.94;5085031;28;20460;-80
2021/04/09 02:00:57;;;;;;;14.03;7.93;;;;;;;-145.52;100.00;65322.94;5087796;28;20513;-80
2021/04/09 02:03:24;;;;;;;11.80;7.73;;;;;;;-145.52;100.00;65322.94;5102647;28;20498;-80
2021/04/09 02:05:52;;;;;;;9.30;7.47;;;;;;;-145.52;100.00;65322.94;5084722;28;20525;-79
2021/04/09 02:08:19;;;;;;;17.50;7.00;;;;;;;-145.52;100.00;65322.94;5084258;28;20447;-80
2021/04/09 02:10:47;;;;;;;10.97;8.13;;;;;;;-145.52;100.00;65322.94;5104602;28;20524;-80
2021/04/09 02:13:13;;;;;;;9.67;7.63;;;;;;;-145.52;100.00;65322.94;5104668;28;20454;-79
2021/04/09 02:15:39;;;;;;;11.03;7.73;;;;;;;-145.52;100.00;65322.94;5083192;28;20476;-79
2021/04/09 02:18:05;;;;;;;9.23;7.93;;;;;;;-145.52;100.00;65322.94;5083357;28;20447;-78
2021/04/09 02:20:31;;;;;;;12.17;7.13;;;;;;;-145.52;100.00;65322.94;5082103;28;21050;-79
2021/04/09 02:22:59;;;;;;;10.23;7.10;;;;;;;-145.52;100.00;65322.94;5082296;28;20498;-79
2021/04/09 02:25:25;;;;;;;11.23;8.13;;;;;;;-145.52;100.00;65322.94;5081519;28;20776;-78
2021/04/09 02:27:52;;;;;;;12.10;8.00;;;;;;;-145.52;100.00;65322.94;5102713;28;20431;-80
2021/04/09 02:30:21;;;;;;;10.83;7.70;;;;;;;-145.52;100.00;65322.94;5102117;28;20878;-79
2021/04/09 02:32:47;;;;;;;11.97;7.33;;;;;;;-145.52;100.00;65322.94;5103199;28;20467;-80
2021/04/09 02:35:15;;;;;;;10.13;7.43;;;;;;;-145.52;100.00;65322.94;5074608;28;20463;-79
2021/04/09 02:37:42;;;;;;;12.33;8.10;;;;;;;-145.52;100.00;65322.94;5063420;28;20957;-77
2021/04/09 02:40:14;;;;;;;12.17;7.53;;;;;;;-145.52;100.00;65322.94;5096220;28;20427;-79
2021/04/09 02:42:41;;;;;;;11.73;8.10;;;;;;;-145.52;100.00;65322.94;5104808;28;20513;-80
2021/04/09 02:45:09;;;;;;;9.40;7.03;;;;;;;-145.52;100.00;65322.94;5088216;28;20448;-79
2021/04/09 02:47:37;;;;;;;9.17;7.80;;;;;;;-145.52;100.00;65322.94;5085265;28;20804;-81
2021/04/09 02:50:05;;;;;;;10.27;7.97;;;;;;;-145.52;100.00;65322.94;5098790;28;20443;-79
2021/04/09 02:52:33;;;;;;;12.03;7.07;;;;;;;-145.52;100.00;65322.94;5102222;28;20512;-78
2021/04/09 02:55:02;;;;;;;9.40;7.80;;;;;;;-145.52;100.00;65322.94;5080610;28;20791;-79
2021/04/09 02:57:30;;;;;;;12.77;7.63;;;;;;;-145.52;100.00;65322.94;5073005;28;20474;-79
2021/04/09 02:59:58;;;;;;;8.47;6.87;;;;;;;-145.52;100.00;65322.94;5097032;28;20459;-78
2021/04/09 03:02:24;;;;;;;10.33;6.43;;;;;;;-145.52;100.00;65322.94;5103253;28;20475;-80
2021/04/09 03:04:52;;;;;;;9.97;7.03;;;;;;;-145.52;100.00;65322.94;5102393;28;20451;-79
2021/04/09 03:07:20;;;;;;;9.83;6.73;;;;;;;-145.52;100.00;65322.94;5100920;28;20487;-78
2021/04/09 03:09:46;;;;;;;9.50;7.17;;;;;;;-145.52;100.00;65322.94;5104428;28;20455;-79
2021/04/09 03:12:14;;;;;;;10.97;7.13;;;;;;;-145.52;100.00;65322.94;5097142;28;20489;-79
2021/04/09 03:14:42;;;;;;;10.37;7.47;;;;;;;-145.52;100.00;65322.94;5062570;28;20506;-79
2021/04/09 03:17:13;;;;;;;8.90;6.87;;;;;;;-145.52;100.00;65322.94;5073770;28;20494;-77
2021/04/09 03:19:39;;;;;;;8.97;6.63;;;;;;;-145.52;100.00;65322.94;5104045;28;20423;-79
2021/04/09 03:22:09;;;;;;;14.00;8.00;;;;;;;-145.52;100.00;65322.94;5094900;28;20480;-80
2021/04/09 03:24:36;;;;;;;10.30;6.60;;;;;;;-145.52;100.00;65322.94;5084371;28;20459;-80
2021/04/09 03:27:02;;;;;;;8.67;7.20;;;;;;;-145.52;100.00;65322.94;5089348;28;20485;-80
2021/04/09 03:29:28;;;;;;;10.50;6.90;;;;;;;-145.52;100.00;65322.94;5100173;28;20446;-78
2021/04/09 03:31:55;;;;;;;12.67;7.40;;;;;;;-145.52;100.00;65322.94;5097173;28;20518;-80
2021/04/09 03:34:22;;;;;;;9.83;6.47;;;;;;;-145.52;100.00;65322.94;5083118;28;20473;-79
2021/04/09 03:36:48;;;;;;;10.00;7.27;;;;;;;-145.52;100.00;65322.94;5101965;28;20489;-79
2021/04/09 03:39:14;;;;;;;11.57;7.67;;;;;;;-145.52;100.00;65322.94;5104210;28;20957;-80
2021/04/09 03:41:41;;;;;;;11.60;9.00;;;;;;;-145.52;100.00;65322.94;5088503;28;20497;-79
2021/04/09 03:44:07;;;;;;;16.13;7.60;;;;;;;-145.52;100.00;65322.94;5097621;28;20482;-80
2021/04/09 03:46:33;;;;;;;11.70;7.97;;;;;;;-145.52;100.00;65322.94;5090799;28;20964;-81
2021/04/09 03:49:00;;;;;;;11.83;6.97;;;;;;;-145.52;100.00;65322.94;5096167;28;20423;-80
2021/04/09 03:51:27;;;;;;;11.87;7.70;;;;;;;-145.52;100.00;65322.94;5106175;28;21055;-80
2021/04/09 03:53:53;;;;;;;11.50;7.03;;;;;;;-145.52;100.00;65322.94;5106707;28;20450;-79
2021/04/09 03:56:19;;;;;;;15.33;8.43;;;;;;;-145.52;100.00;65322.94;5105826;28;21140;-78
2021/04/09 03:58:45;;;;;;;10.07;6.87;;;;;;;-145.52;100.00;65322.94;5104426;28;20448;-80
2021/04/09 04:01:12;;;;;;;9.67;6.47;;;;;;;-145.52;100.00;65322.94;5106631;28;20470;-79
2021/04/09 04:03:38;;;;;;;12.63;7.00;;;;;;;-145.52;100.00;65322.94;5099206;28;20489;-81
2021/04/09 04:06:05;;;;;;;8.20;6.63;;;;;;;-145.52;100.00;65322.94;5087216;28;20464;-77
2021/04/09 04:08:31;;;;;;;8.70;6.87;;;;;;;-145.52;100.00;65322.94;5097087;28;20522;-79
2021/04/09 04:10:58;;;;;;;11.10;7.97;;;;;;;-145.52;100.00;65322.94;5098119;28;20470;-79
2021/04/09 04:13:24;;;;;;;10.90;7.27;;;;;;;-145.52;100.00;65322.94;5094606;28;20455;-79
2021/04/09 04:15:50;;;;;;;13.20;7.60;;;;;;;-145.52;100.00;65322.94;5093092;28;20501;-78
2021/04/09 04:18:17;;;;;;;13.70;7.60;;;;;;;-145.52;100.00;65322.94;5108164;28;20427;-78
2021/04/09 04:20:43;;;;;;;9.93;7.30;;;;;;;-145.52;100.00;65322.94;5090880;28;20467;-79
2021/04/09 04:23:10;;;;;;;11.20;6.80;;;;;;;-145.52;100.00;65322.94;5080754;28;20492;-80
2021/04/09 04:25:36;;;;;;;9.43;6.67;;;;;;;-145.52;100.00;65322.94;5086040;28;20476;-79
2021/04/09 04:28:07;;;;;;;11.43;7.83;;;;;;;-145.52;100.00;65322.94;5095612;28;20439;-80
2021/04/09 04:30:36;;;;;;;12.17;7.93;;;;;;;-145.52;100.00;65322.94;5084661;28;20506;-78
2021/04/09 04:33:02;;;;;;;9.43;8.50;;;;;;;-145.52;100.00;65322.94;5098626;28;20440;-79
2021/04/09 04:35:28;;;;;;;10.37;7.97;;;;;;;-145.52;100.00;65322.94;5102009;28;20991;-78
2021/04/09 04:37:55;;;;;;;9.60;8.20;;;;;;;-145.52;100.00;65322.94;5102402;28;20825;-78
2021/04/09 04:40:22;;;;;;;9.77;7.27;;;;;;;-145.52;100.00;65322.94;5096488;28;20436;-79
2021/04/09 04:42:48;;;;;;;9.50;8.23;;;;;;;-145.52;100.00;65322.94;5092413;28;20498;-80
2021/04/09 04:45:16;;;;;;;17.03;7.23;;;;;;;-145.52;100.00;65322.94;5098650;28;20834;-79
2021/04/09 04:47:42;;;;;;;11.20;7.40;;;;;;;-145.52;100.00;65322.94;5107111;28;20446;-78
2021/04/09 04:50:09;;;;;;;12.67;8.83;;;;;;;-145.52;100.00;65322.94;5106698;28;20432;-80
2021/04/09 04:52:36;;;;;;;10.80;8.27;;;;;;;-145.52;100.00;65322.94;5106223;28;20431;-80
2021/04/09 04:55:03;;;;;;;10.03;7.80;;;;;;;-145.52;100.00;65322.94;5102286;28;20451;-80
2021/04/09 04:57:30;;;;;;;13.73;7.70;;;;;;;-145.52;100.00;65322.94;5093942;28;20479;-80
2021/04/09 04:59:56;;;;;;;13.20;7.80;;;;;;;-145.52;100.00;65322.94;5085651;28;20444;-80
2021/04/09 05:02:22;;;;;;;14.37;7.87;;;;;;;-145.52;100.00;65322.94;5084822;28;20476;-81
2021/04/09 05:04:49;;;;;;;13.80;7.67;;;;;;;-145.52;100.00;65322.94;5073957;28;20465;-80
2021/04/09 05:07:15;;;;;;;12.80;8.00;;;;;;;-145.52;100.00;65322.94;5073379;28;20517;-79
2021/04/09 05:09:41;;;;;;;13.10;8.00;;;;;;;-145.52;100.00;65322.94;5083946;28;20455;-81
2021/04/09 05:12:09;;;;;;;9.83;7.50;;;;;;;-145.52;100.00;65322.94;5087371;28;20475;-80
2021/04/09 05:14:36;;;;;;;8.47;7.10;;;;;;;-145.52;100.00;65322.94;5104280;28;20459;-78
2021/04/09 05:17:02;;;;;;;13.30;8.43;;;;;;;-145.52;100.00;65322.94;5085592;28;20493;-80
2021/04/09 05:19:28;;;;;;;12.67;8.10;;;;;;;-145.52;100.00;65322.94;5083357;28;20458;-80
2021/04/09 05:21:54;;;;;;;10.67;7.60;;;;;;;-145.52;100.00;65322.94;5082592;28;20472;-79
2021/04/09 05:24:21;;;;;;;12.90;8.70;;;;;;;-145.52;100.00;65322.94;5082908;28;20518;-80
2021/04/09 05:26:47;;;;;;;14.43;7.40;;;;;;;-145.52;100.00;65322.94;5082470;28;20478;-79
2021/04/09 05:29:13;;;;;;;9.60;8.50;;;;;;;-145.52;100.00;65322.94;5084632;28;20456;-79
2021/04/09 05:31:40;;;;;;;15.23;8.07;;;;;;;-145.52;100.00;65322.94;5084797;28;20483;-79
2021/04/09 05:34:06;;;;;;;14.23;8.00;;;;;;;-145.52;100.00;65322.94;5086554;28;20455;-78
2021/04/09 05:36:33;;;;;;;12.33;8.33;;;;;;;-145.52;100.00;65322.94;5072935;28;20477;-78
2021/04/09 05:38:59;;;;;;;13.50;8.50;;;;;;;-145.52;100.00;65322.94;5065108;28;20457;-80
2021/04/09 05:41:26;;;;;;;13.47;7.00;;;;;;;-145.52;100.00;65322.94;5088555;28;20905;-78
2021/04/09 05:43:52;;;;;;;16.73;8.30;;;;;;;-145.52;100.00;65322.94;5085634;28;20490;-79
2021/04/09 05:46:18;;;;;;;10.90;7.30;;;;;;;-145.52;100.00;65322.94;5086806;28;20463;-79
2021/04/09 05:48:45;;;;;;;16.17;8.87;;;;;;;-145.52;100.00;65322.94;5102303;28;20438;-78
2021/04/09 05:51:11;;;;;;;10.90;8.30;;;;;;;-145.52;100.00;65322.94;5089012;28;20483;-79
2021/04/09 05:53:39;;;;;;;14.67;9.40;;;;;;;-145.52;100.00;65322.94;5082241;28;20448;-80
2021/04/09 05:56:06;;;;;;;11.13;7.70;;;;;;;-145.52;100.00;65322.94;5081109;28;20467;-68
2021/04/09 05:58:32;;;;;;;13.10;8.53;;;;;;;-145.52;100.00;65322.94;5079103;28;20444;-71
2021/04/09 06:00:58;;;;;;;12.60;7.43;;;;;;;-145.52;100.00;65322.94;5064324;28;20659;-70
2021/04/09 06:03:25;;;;;;;13.27;9.17;;;;;;;-145.52;100.00;65322.94;5067288;28;20497;-72
2021/04/09 06:05:52;;;;;;;10.47;8.27;;;;;;;-145.52;100.00;65322.94;5080612;28;20479;-70
2021/04/09 06:08:18;;;;;;;13.90;8.77;;;;;;;-145.52;100.00;65322.94;5081430;28;20463;-73
2021/04/09 06:10:44;;;;;;;13.80;8.83;;;;;;;-145.52;100.00;65322.94;5080212;28;20479;-74
2021/04/09 06:13:10;;;;;;;15.10;8.40;;;;;;;-145.52;100.00;65322.94;5077118;28;20546;-73
2021/04/09 06:15:37;;;;;;;12.20;8.63;;;;;;;-145.52;100.00;65322.94;5078340;28;20471;-72
2021/04/09 06:18:04;;;;;;;13.37;8.30;;;;;;;-145.52;100.00;65322.94;5081072;28;20440;-73
2021/04/09 06:20:30;;;;;;;10.60;7.60;;;;;;;-145.52;100.00;65322.94;5073917;28;20506;-72
2021/04/09 06:22:57;;;;;;;13.80;8.00;;;;;;;-145.52;100.00;65322.94;5065425;28;20488;-72
2021/04/09 06:25:25;;;;;;;14.60;7.83;;;;;;;-145.52;100.00;65322.94;5068105;28;20801;-77
2021/04/09 06:27:51;;;;;;;12.10;6.90;;;;;;;-145.52;100.00;65322.94;5068359;28;20467;-78
2021/04/09 06:30:18;;;;;;;12.43;7.67;;;;;;;-145.52;100.00;65322.94;5082026;28;20917;-71
2021/04/09 06:32:45;;;;;;;13.33;8.10;;;;;;;-145.52;100.00;65322.94;5095574;28;20436;-71
2021/04/09 06:35:12;;;;;;;12.40;8.77;;;;;;;-145.52;100.00;65322.94;5077029;28;20509;-69
2021/04/09 06:39:54;;;;;;;13.57;9.30;;;;;;;10.20;41.23;100148.75;5117743;27;20559;-68
2021/04/09 06:42:21;;;;;;;16.00;10.70;;;;;;;9.31;42.53;100146.91;5092760;27;20476;-64
2021/04/09 06:47:07;;;;;;;13.40;8.87;;;;;;;10.20;41.32;100145.25;5063742;27;798351;-65
2021/04/09 06:49:33;;;;;;;18.27;9.60;;;;;;;9.49;42.41;100143.59;5077985;28;20224;-64
2021/04/09 06:52:00;;;;;;;16.30;8.57;;;;;;;10.12;41.35;100144.13;5077911;28;20488;-67
2021/04/09 06:56:26;;;;;;;22.43;9.73;;;;;;;11.23;39.14;100139.16;5104529;27;20576;-65
2021/04/09 06:58:52;;;;;;;15.23;8.97;;;;;;;11.23;38.04;100140.97;5077830;28;20440;-67
2021/04/09 07:01:22;;;;;;;15.87;9.40;;;;;;;10.65;39.72;100137.50;5079644;28;20477;-66
2021/04/09 07:03:48;;;;;;;17.20;9.53;;;;;;;11.28;38.72;100144.91;5060810;28;20449;-66
2021/04/09 07:06:14;;;;;;;14.17;8.30;;;;;;;11.78;37.68;100148.16;5071384;28;20488;-65
2021/04/09 07:08:41;;;;;;;11.73;8.03;;;;;;;11.35;39.03;100142.44;5078133;28;20464;-67
2021/04/09 07:11:07;;;;;;;18.50;8.93;;;;;;;12.55;36.82;100144.03;5076578;28;20476;-65
2021/04/09 07:13:49;;;;;;;11.33;9.07;;;;;;;13.56;34.71;100135.38;5077720;28;20543;-65
2021/04/09 07:16:15;;;;;;;12.30;8.23;;;;;;;13.46;34.37;100129.31;5087861;28;20466;-65
2021/04/09 07:18:49;;;;;;;13.10;7.90;;;;;;;13.72;34.19;100128.38;5098075;28;20439;-65
2021/04/09 07:23:35;;;;;;;10.20;7.07;;;;;;;13.47;34.49;100114.03;5180740;27;20552;-69
2021/04/09 07:26:02;;;;;;;13.93;8.30;;;;;;;13.84;33.35;100113.63;5163759;27;20477;-68
2021/04/09 07:28:33;;;;;;;10.60;8.30;;;;;;;12.98;34.87;100109.25;5139060;28;20433;-67
2021/04/09 07:31:00;;;;;;;11.47;7.77;;;;;;;13.97;34.33;100113.13;5138869;28;20526;-67
2021/04/09 07:33:27;;;;;;;10.37;7.80;;;;;;;13.97;33.19;100120.38;5138866;28;20488;-68
2021/04/09 07:35:56;;;;;;;10.90;8.50;;;;;;;15.12;32.04;100115.75;5135678;28;20527;-65
2021/04/09 07:38:25;;;;;;;11.20;8.20;;;;;;;13.86;33.51;100113.47;5129498;28;20465;-64
2021/04/09 07:40:54;;;;;;;18.13;8.43;;;;;;;14.40;33.77;100123.75;5129407;27;20458;-64
2021/04/09 07:43:20;;;;;;;12.53;7.87;;;;;;;16.63;29.30;100132.50;5117023;28;20435;-64
2021/04/09 07:45:47;;;;;;;13.30;7.90;;;;;;;18.61;26.41;100121.63;5115344;27;20500;-68
2021/04/09 07:48:17;;;;;;;11.93;7.93;;;;;;;18.78;26.47;100122.19;5113753;28;20454;-69
2021/04/09 07:50:47;;;;;;;14.67;7.80;;;;;;;16.69;28.76;100123.69;5117399;28;20511;-64
2021/04/09 07:53:17;;;;;;;10.00;7.87;;;;;;;18.76;26.67;100116.09;5118058;28;20486;-65
2021/04/09 07:55:43;;;;;;;14.13;7.17;;;;;;;16.11;29.25;100126.88;5117938;28;20530;-66
2021/04/09 07:58:18;;;;;;;11.07;7.47;;;;;;;15.90;30.46;100121.28;5117108;28;20442;-74
2021/04/09 08:00:45;;;;;;;14.63;7.43;;;;;;;14.15;33.44;100114.81;5117279;28;20466;-74
2021/04/09 08:03:11;;;;;;;9.40;7.00;;;;;;;14.35;32.76;100115.34;5117780;28;20870;-63
2021/04/09 08:05:38;;;;;;;9.97;6.90;;;;;;;13.70;33.80;100115.09;5115981;28;20470;-65
2021/04/09 08:08:05;;;;;;;9.70;7.10;;;;;;;14.42;32.61;100106.41;5117402;28;20442;-63
2021/04/09 08:10:33;;;;;;;11.60;7.07;;;;;;;15.40;31.67;100108.06;5117466;27;20465;-65
2021/04/09 08:13:01;;;;;;;9.77;6.90;;;;;;;16.12;30.58;100117.75;5116304;28;20470;-68
2021/04/09 08:15:30;;;;;;;10.70;7.27;;;;;;;17.83;28.79;100112.56;5116892;28;20627;-70
2021/04/09 08:18:01;;;;;;;10.80;6.43;;;;;;;17.50;28.25;100111.13;5118670;28;20490;-71
2021/04/09 08:20:30;;;;;;;11.00;6.90;;;;;;;17.89;26.90;100117.22;5114409;28;20514;-70
2021/04/09 08:22:58;;;;;;;11.80;7.47;;;;;;;18.25;26.23;100100.09;5113037;28;20486;-73
2021/04/09 08:25:28;;;;;;;11.00;7.00;;;;;;;17.98;27.44;100112.53;5116364;27;20462;-72
2021/04/09 08:27:57;;;;;;;10.57;7.07;;;;;;;17.56;28.54;100117.66;5112711;28;20446;-66
2021/04/09 08:30:24;;;;;;;9.60;6.77;;;;;;;17.50;27.91;100103.03;5116864;28;20450;-70
2021/04/09 08:32:55;;;;;;;8.23;5.87;;;;;;;16.12;30.07;100115.06;5115672;28;20599;-70
2021/04/09 08:35:22;;;;;;;12.20;6.97;;;;;;;17.49;29.11;100120.25;5099957;28;20533;-63
2021/04/09 08:37:49;;;;;;;7.97;5.97;;;;;;;19.83;26.02;100105.84;5098645;28;20430;-68
2021/04/09 08:40:25;;;;;;;10.53;6.40;;;;;;;19.02;26.06;100109.22;5085783;28;20684;-68
2021/04/09 08:43:00;;;;;;;10.83;6.67;;;;;;;17.54;28.31;100111.59;5097737;28;20466;-65
2021/04/09 08:45:27;;;;;;;10.97;6.10;;;;;;;15.59;30.85;100111.34;5101701;28;20470;-64
2021/04/09 08:47:56;;;;;;;8.90;5.30;;;;;;;15.91;31.37;100107.63;5085203;28;20459;-68
2021/04/09 08:50:22;;;;;;;7.00;5.77;;;;;;;16.45;30.11;100116.66;5091491;28;20439;-72
2021/04/09 08:52:48;;;;;;;8.87;5.20;;;;;;;16.70;29.71;100109.16;5102403;28;20668;-69
2021/04/09 08:55:15;;;;;;;8.60;6.80;;;;;;;17.30;29.13;100105.47;5099426;28;21097;-73
2021/04/09 08:57:44;;;;;;;8.20;5.90;;;;;;;16.81;29.82;100114.13;5102357;28;20535;-71
2021/04/09 09:00:17;;;;;;;10.20;5.70;;;;;;;16.64;29.88;100121.53;5091167;28;20442;-73
2021/04/09 09:02:45;;;;;;;8.57;6.60;;;;;;;17.00;29.81;100107.38;5102818;28;20457;-68
2021/04/09 09:05:14;;;;;;;10.97;6.70;;;;;;;16.79;30.03;100105.38;5088648;28;20458;-68
2021/04/09 09:07:56;;;;;;;9.77;5.63;;;;;;;16.33;30.88;100105.47;5101712;28;20465;-67
2021/04/09 09:10:53;;;;;;;9.60;5.90;;;;;;;15.52;31.83;100104.97;5102499;28;20493;-68
2021/04/09 09:13:43;;;;;;;9.70;5.50;;;;;;;15.46;32.63;100086.81;5101562;28;20482;-68
2021/04/09 09:16:14;;;;;;;7.10;5.40;;;;;;;15.77;32.20;100090.38;5085190;28;20468;-68
2021/04/09 09:18:51;;;;;;;8.53;5.13;;;;;;;15.75;31.88;100094.28;5100854;28;20800;-64
2021/04/09 09:21:25;;;;;;;11.30;5.80;;;;;;;14.17;34.83;100086.78;5093707;28;20553;-65
2021/04/09 09:23:56;;;;;;;7.37;5.47;;;;;;;14.06;35.23;100101.41;5101375;28;20435;-66
2021/04/09 09:26:24;;;;;;;9.47;5.83;;;;;;;13.67;36.25;100091.25;5102568;28;20513;-65
2021/04/09 09:29:12;;;;;;;10.10;6.33;;;;;;;14.92;35.21;100087.53;5101016;28;20443;-71
2021/04/09 09:31:40;;;;;;;11.83;6.70;;;;;;;14.31;35.24;100086.09;5093759;28;20490;-68
2021/04/09 09:34:37;;;;;;;6.57;5.20;;;;;;;14.41;35.94;100088.63;5102399;28;20780;-63
2021/04/09 09:37:07;;;;;;;10.27;5.50;;;;;;;14.17;36.29;100076.03;5102285;28;20471;-63
2021/04/09 09:39:38;;;;;;;9.13;5.30;;;;;;;16.19;33.15;100078.25;5099324;28;20454;-64
2021/04/09 09:42:06;;;;;;;6.83;4.80;;;;;;;16.47;33.16;100071.44;5101386;28;20474;-65
2021/04/09 09:44:36;;;;;;;7.33;5.07;;;;;;;17.81;30.77;100074.03;5101612;28;20455;-65
2021/04/09 09:47:03;;;;;;;6.53;5.00;;;;;;;17.55;30.78;100094.38;5082027;28;20475;-65
2021/04/09 09:49:33;;;;;;;7.63;5.73;;;;;;;15.49;34.13;100078.41;5100010;28;20444;-67
2021/04/09 09:51:59;;;;;;;11.80;5.87;;;;;;;15.49;34.26;100078.41;5101438;28;20475;-67
2021/04/09 09:54:28;;;;;;;7.50;5.37;;;;;;;15.34;35.08;100065.66;5098670;28;20790;-67
2021/04/09 09:56:58;;;;;;;7.47;5.20;;;;;;;15.46;35.17;100065.28;5100482;28;20483;-68
2021/04/09 09:59:29;;;;;;;6.60;4.40;;;;;;;15.93;33.82;100070.53;5095555;28;21017;-66
2021/04/09 10:01:58;;;;;;;8.17;3.90;;;;;;;16.09;33.45;100068.72;5102028;28;20462;-65
2021/04/09 10:04:25;;;;;;;6.00;4.53;;;;;;;15.12;35.17;100059.22;5099789;28;20453;-65
2021/04/09 10:06:52;;;;;;;7.13;4.10;;;;;;;16.26;34.06;100064.03;5101117;28;20502;-67
2021/04/09 10:09:30;;;;;;;9.83;4.80;;;;;;;15.32;35.78;100075.75;5101882;28;20465;-66
2021/04/09 10:11:58;;;;;;;6.40;4.13;;;;;;;16.08;34.50;100073.28;5100249;28;20545;-68
2021/04/09 10:14:27;;;;;;;6.43;4.50;;;;;;;15.58;35.22;100069.25;5082284;28;20810;-68
2021/04/09 10:16:55;;;;;;;6.27;5.10;;;;;;;14.95;35.74;100061.13;5101039;28;20501;-70
2021/04/09 10:19:21;;;;;;;7.30;4.20;;;;;;;15.38;35.80;100064.31;5098973;28;20450;-69
2021/04/09 10:21:50;;;;;;;5.00;3.50;;;;;;;15.60;34.87;100065.34;5101645;28;20482;-68
2021/04/09 10:24:17;;;;;;;5.07;3.97;;;;;;;15.49;35.55;100071.13;5101379;28;20478;-73
2021/04/09 10:26:50;;;;;;;5.07;4.00;;;;;;;14.82;36.51;100071.59;5099542;28;20471;-71
2021/04/09 10:29:24;;;;;;;4.87;4.40;;;;;;;14.58;36.19;100073.34;5099994;28;20435;-72
2021/04/09 10:31:51;;;;;;;4.73;4.13;;;;;;;14.91;35.99;100064.31;5101052;28;21006;-78
2021/04/09 10:34:21;;;;;;;5.10;3.70;;;;;;;15.61;34.97;100063.50;5100926;28;20470;-80
2021/04/09 10:36:48;;;;;;;5.13;3.20;;;;;;;15.08;35.04;100055.16;5101905;28;20497;-72
2021/04/09 10:39:16;;;;;;;7.70;3.63;;;;;;;15.68;34.56;100064.47;5101509;28;20686;-73
2021/04/09 10:41:46;;;;;;;4.73;3.13;;;;;;;15.03;35.60;100042.25;5099949;28;20471;-69
2021/04/09 10:44:15;;;;;;;4.50;3.30;;;;;;;14.67;36.29;100045.41;5100982;28;20451;-68
2021/04/09 10:46:44;;;;;;;4.83;3.50;;;;;;;15.33;35.67;100060.44;5101156;28;20475;-76
2021/04/09 10:49:12;;;;;;;4.80;3.70;;;;;;;16.06;34.53;100042.13;5101309;28;20458;-75
2021/04/09 10:51:39;;;;;;;4.00;3.23;;;;;;;15.44;35.67;100057.34;5101273;28;20987;-75
2021/04/09 10:54:09;;;;;;;6.90;3.77;;;;;;;14.40;36.46;100048.44;5081370;28;20487;-72
2021/04/09 10:56:36;;;;;;;6.33;3.40;;;;;;;14.98;36.49;100060.78;5095079;28;20615;-65
2021/04/09 10:59:08;;;;;;;5.07;4.07;;;;;;;15.95;34.31;100052.34;5100706;28;20439;-71
2021/04/09 11:01:34;;;;;;;5.53;3.67;;;;;;;15.50;35.38;100050.41;5103051;28;20928;-69
2021/04/09 11:04:01;;;;;;;6.60;4.43;;;;;;;14.91;36.12;100051.69;5120103;28;20971;-69
2021/04/09 11:06:27;;;;;;;6.23;4.00;;;;;;;13.78;37.54;100041.72;5100746;28;21108;-70
2021/04/09 11:09:03;;;;;;;5.13;4.63;;;;;;;14.37;36.99;100040.72;5098544;28;20451;-68
2021/04/09 11:11:31;;;;;;;5.43;4.47;;;;;;;15.24;35.54;100041.66;5100388;28;20494;-68
2021/04/09 11:14:04;;;;;;;9.17;4.50;;;;;;;15.70;35.52;100040.84;5101005;28;20450;-68
2021/04/09 11:16:52;;;;;;;8.50;4.67;;;;;;;15.46;36.30;100041.84;5099271;28;20464;-67
2021/04/09 11:19:23;;;;;;;6.63;4.13;;;;;;;15.79;35.32;100034.41;5098789;28;20439;-68
2021/04/09 11:21:51;;;;;;;6.47;5.03;;;;;;;16.19;34.35;100045.88;5096077;28;20503;-71
2021/04/09 11:24:21;;;;;;;6.73;4.60;;;;;;;15.77;35.28;100033.75;5100904;28;20489;-70
2021/04/09 11:26:48;;;;;;;5.47;4.53;;;;;;;15.92;34.77;100030.28;5100728;28;20516;-70